Time;durP1;ratioP1;P1;durP2;ratioP2;P2;SDS_P1;SDS_P2;PMS_P1;PMS_P2;Temp;Humidity;BMP_temperature;BMP_pressure;BME280_temperature;BME280_humidity;BME280_pressure;Samples;Min_cycle;Max_cycle;Signal;HPM_P1;HPM_P2
2023/03/24 00:02:09;;;;;;;1.83;0.20;;;;;;;11.99;100.00;99035.25;10540543;28;20119;-82
2023/03/24 00:07:13;;;;;;;0.35;0.35;;;;;;;11.91;100.00;99039.59;10510573;28;20110;-83
2023/03/24 00:12:18;;;;;;;0.30;0.15;;;;;;;11.80;100.00;99033.72;10519803;28;20851;-82
2023/03/24 00:17:24;;;;;;;0.32;0.13;;;;;;;12.20;100.00;99041.94;10541659;28;20501;-84
2023/03/24 00:22:27;;;;;;;1.50;0.45;;;;;;;11.93;100.00;99029.25;10531481;28;20066;-82
2023/03/24 00:27:30;;;;;;;1.25;0.30;;;;;;;12.04;100.00;99023.16;10512249;28;20044;-83
2023/03/24 00:32:31;;;;;;;0.65;0.57;;;;;;;11.93;100.00;99018.94;10568567;28;20044;-81
2023/03/24 00:37:38;;;;;;;0.17;0.10;;;;;;;11.81;100.00;99000.13;10540420;28;20087;-82
2023/03/24 00:42:44;;;;;;;0.20;0.20;;;;;;;11.80;100.00;98987.28;10536397;28;20392;-83
2023/03/24 00:47:48;;;;;;;0.03;0.03;;;;;;;11.70;100.00;98971.00;10505479;28;20036;-83
2023/03/24 00:52:52;;;;;;;0.00;0.00;;;;;;;12.37;100.00;98928.13;10548120;28;20041;-82
2023/03/24 00:57:54;;;;;;;0.20;0.20;;;;;;;12.19;100.00;98920.59;10528709;28;20510;-82
2023/03/24 01:02:56;;;;;;;1.08;0.98;;;;;;;12.19;100.00;98944.72;10517101;28;20151;-82
2023/03/24 01:08:02;;;;;;;0.08;0.08;;;;;;;12.27;100.00;98944.59;10528025;28;20082;-82
2023/03/24 01:13:04;;;;;;;0.20;0.20;;;;;;;12.01;100.00;98945.78;10539383;28;20040;-83
2023/03/24 01:18:08;;;;;;;0.10;0.10;;;;;;;11.97;100.00;98932.94;10542353;28;20040;-82
2023/03/24 01:23:13;;;;;;;0.10;0.03;;;;;;;12.18;100.00;98911.16;10554608;27;20041;-84
2023/03/24 01:28:20;;;;;;;0.30;0.30;;;;;;;12.20;100.00;98909.41;10532732;28;20039;-82
2023/03/24 01:33:22;;;;;;;0.70;0.40;;;;;;;12.38;100.00;98910.88;10541242;28;20031;-82
2023/03/24 01:38:24;;;;;;;0.30;0.20;;;;;;;12.46;100.00;98903.06;10525614;28;20142;-82
2023/03/24 01:43:32;;;;;;;0.10;0.10;;;;;;;12.67;100.00;98889.81;10519821;28;20040;-83
2023/03/24 01:48:37;;;;;;;0.10;0.10;;;;;;;12.54;100.00;98908.97;10520779;28;20522;-81
2023/03/24 01:53:45;;;;;;;1.02;0.70;;;;;;;12.37;100.00;98907.47;10524889;28;20121;-83
2023/03/24 01:58:52;;;;;;;0.22;0.22;;;;;;;12.65;100.00;98901.91;10545121;28;20035;-79
2023/03/24 02:04:37;;;;;;;0.28;0.17;;;;;;;12.48;100.00;98901.28;10445718;28;20410;-79
2023/03/24 02:09:41;;;;;;;0.30;0.30;;;;;;;12.66;100.00;98888.13;10541457;28;20032;-79
2023/03/24 02:14:46;;;;;;;1.20;0.77;;;;;;;12.28;100.00;98849.94;10556509;27;20054;-80
2023/03/24 02:20:10;;;;;;;0.20;0.10;;;;;;;12.85;100.00;98828.38;10550362;28;20108;-80
2023/03/24 02:25:34;;;;;;;0.00;0.00;;;;;;;12.74;100.00;98838.06;10528906;28;20047;-80
2023/03/24 02:30:53;;;;;;;0.10;0.05;;;;;;;15.40;100.00;98910.25;10543622;28;20048;-80
2023/03/24 02:36:17;;;;;;;0.60;0.40;;;;;;;13.52;100.00;99153.19;10519930;28;20143;-80
2023/03/24 02:41:27;;;;;;;0.10;0.10;;;;;;;12.79;100.00;98980.94;10547514;28;20127;-80
2023/03/24 02:46:38;;;;;;;0.10;0.10;;;;;;;13.37;100.00;98921.44;10531149;28;20052;-80
2023/03/24 02:52:18;;;;;;;0.38;0.32;;;;;;;13.10;100.00;98898.63;10524688;28;20044;-80
2023/03/24 02:57:54;;;;;;;0.20;0.13;;;;;;;13.16;100.00;98869.22;10471295;28;20039;-81
2023/03/24 03:03:26;;;;;;;1.75;1.65;;;;;;;13.12;100.00;98890.84;10527399;28;20510;-80
2023/03/24 03:08:35;;;;;;;0.20;0.20;;;;;;;13.19;100.00;98871.75;10535768;28;20070;-79
2023/03/24 03:13:41;;;;;;;0.10;0.10;;;;;;;13.00;100.00;98887.56;10509152;28;20044;-82
2023/03/24 03:18:50;;;;;;;0.10;0.10;;;;;;;12.96;100.00;98854.91;10506109;28;20487;-82
2023/03/24 03:23:58;;;;;;;0.55;0.47;;;;;;;13.10;100.00;98861.56;10522806;28;20048;-85
2023/03/24 03:29:10;;;;;;;0.73;0.30;;;;;;;13.10;100.00;98862.44;10541609;28;20043;-83
2023/03/24 03:34:32;;;;;;;0.00;0.00;;;;;;;13.08;100.00;98868.50;10563125;28;20525;-86
2023/03/24 03:39:44;;;;;;;0.40;0.30;;;;;;;14.79;100.00;98846.06;10562578;28;20052;-86
2023/03/24 03:44:47;;;;;;;0.10;0.10;;;;;;;13.42;100.00;98893.81;10524137;28;20058;-86
2023/03/24 03:49:53;;;;;;;0.30;0.25;;;;;;;13.81;100.00;98891.38;10523579;28;20044;-85
2023/03/24 03:54:55;;;;;;;0.22;0.17;;;;;;;13.53;100.00;98979.81;10507353;28;20058;-82
2023/03/24 03:59:59;;;;;;;0.08;0.08;;;;;;;13.29;100.00;99033.63;10540084;28;20040;-80
2023/03/24 04:05:24;;;;;;;0.00;0.00;;;;;;;11.76;100.00;99079.31;10565940;28;20466;-80
2023/03/24 04:11:07;;;;;;;0.13;0.10;;;;;;;11.54;100.00;99101.81;10522598;28;20483;-80
2023/03/24 04:16:34;;;;;;;0.00;0.00;;;;;;;11.53;100.00;99149.09;10562411;28;20491;-80
2023/03/24 04:22:03;;;;;;;0.57;0.25;;;;;;;11.33;100.00;99162.97;10552177;28;20036;-79
2023/03/24 04:27:20;;;;;;;0.00;0.00;;;;;;;11.30;100.00;99185.34;10536292;28;20040;-79
2023/03/24 04:32:41;;;;;;;0.20;0.20;;;;;;;11.23;100.00;99181.94;10529871;28;20109;-79
2023/03/24 04:37:44;;;;;;;0.00;0.00;;;;;;;10.97;100.00;99188.06;10549863;28;20442;-79
2023/03/24 04:42:54;;;;;;;0.25;0.05;;;;;;;10.73;100.00;99195.00;10507085;28;20101;-79
2023/03/24 04:48:04;;;;;;;0.00;0.00;;;;;;;10.58;100.00;99220.75;10536548;28;20049;-79
2023/03/24 04:53:12;;;;;;;0.00;0.00;;;;;;;10.40;100.00;99250.81;10525923;28;20044;-79
2023/03/24 04:58:19;;;;;;;0.00;0.00;;;;;;;10.45;100.00;99269.72;10551181;28;20050;-78
2023/03/24 05:03:21;;;;;;;0.35;0.30;;;;;;;10.56;100.00;99284.28;10508075;28;20051;-79
2023/03/24 05:08:23;;;;;;;0.38;0.10;;;;;;;10.71;100.00;99302.31;10534636;28;20052;-81
2023/03/24 05:13:25;;;;;;;0.00;0.00;;;;;;;10.74;100.00;99333.22;10555475;28;20051;-80
2023/03/24 05:18:33;;;;;;;3.55;0.30;;;;;;;10.77;100.00;99353.81;10535745;28;20131;-79
2023/03/24 05:23:36;;;;;;;0.00;0.00;;;;;;;10.62;100.00;99364.97;10534651;28;20056;-79
2023/03/24 05:28:38;;;;;;;0.17;0.17;;;;;;;10.54;100.00;99363.25;10554601;28;20048;-80
2023/03/24 05:33:40;;;;;;;0.60;0.57;;;;;;;10.58;100.00;99383.00;10532432;28;20041;-78
2023/03/24 05:38:46;;;;;;;0.00;0.00;;;;;;;10.46;100.00;99404.44;10518872;28;20046;-80
2023/03/24 05:43:48;;;;;;;0.13;0.13;;;;;;;10.44;100.00;99419.88;10542956;28;20048;-80
2023/03/24 05:48:51;;;;;;;0.00;0.00;;;;;;;10.37;100.00;99449.06;10514347;28;20448;-79
2023/03/24 05:53:55;;;;;;;0.25;0.25;;;;;;;10.29;100.00;99455.84;10518545;28;20072;-79
2023/03/24 05:59:04;;;;;;;0.25;0.10;;;;;;;10.11;100.00;99470.34;10527639;28;20045;-79
2023/03/24 06:04:28;;;;;;;0.40;0.20;;;;;;;10.28;100.00;99469.56;10521187;28;20081;-80
2023/03/24 06:09:36;;;;;;;0.15;0.15;;;;;;;10.42;100.00;99478.22;10532684;28;20044;-80
2023/03/24 06:14:42;;;;;;;0.73;0.70;;;;;;;10.37;100.00;99482.50;10523471;28;20044;-79
2023/03/24 06:19:49;;;;;;;2.50;0.85;;;;;;;10.72;100.00;99489.50;10532861;28;20474;-79
2023/03/24 06:25:14;;;;;;;1.67;0.95;;;;;;;11.03;100.00;99499.84;10542814;28;20135;-78
2023/03/24 06:30:21;;;;;;;0.10;0.10;;;;;;;10.86;100.00;99523.03;10524325;28;20044;-78
2023/03/24 06:35:23;;;;;;;0.15;0.10;;;;;;;10.94;100.00;99541.06;10524163;28;20502;-79
2023/03/24 06:40:30;;;;;;;9.57;0.35;;;;;;;11.05;100.00;99554.84;10523896;28;20044;-80
2023/03/24 06:45:33;;;;;;;0.90;0.57;;;;;;;11.00;100.00;99577.16;10571542;27;20118;-79
2023/03/24 06:50:37;;;;;;;1.20;0.60;;;;;;;11.13;100.00;99584.94;10556092;28;20097;-79
2023/03/24 06:55:42;;;;;;;1.02;0.43;;;;;;;11.26;100.00;99595.25;10541335;28;20074;-79
2023/03/24 07:00:51;;;;;;;0.43;0.28;;;;;;;11.16;100.00;99609.00;10539531;28;20039;-80
2023/03/24 07:06:17;;;;;;;0.00;0.00;;;;;;;11.08;100.00;99608.97;10544008;28;20490;-78
2023/03/24 07:11:23;;;;;;;0.05;0.05;;;;;;;11.01;100.00;99621.84;10547716;28;20499;-80
2023/03/24 07:16:27;;;;;;;0.30;0.30;;;;;;;11.33;100.00;99627.09;10519587;28;20496;-79
2023/03/24 07:21:52;;;;;;;0.90;0.10;;;;;;;11.35;100.00;99638.28;10542395;28;20044;-79
2023/03/24 07:27:05;;;;;;;3.80;0.63;;;;;;;11.56;100.00;99652.06;10529635;28;20117;-79
2023/03/24 07:32:09;;;;;;;0.85;0.77;;;;;;;11.55;100.00;99642.59;10522056;28;20051;-79
2023/03/24 07:37:11;;;;;;;1.08;0.57;;;;;;;11.53;100.00;99659.78;10541886;28;20118;-80
2023/03/24 07:42:13;;;;;;;0.20;0.20;;;;;;;11.72;100.00;99666.72;10533287;28;20040;-79
2023/03/24 07:47:43;;;;;;;1.65;0.25;;;;;;;11.51;100.00;99664.06;10525635;28;20048;-79
2023/03/24 07:52:47;;;;;;;0.57;0.57;;;;;;;11.96;100.00;99659.81;10578637;27;20086;-79
2023/03/24 07:57:54;;;;;;;1.05;0.95;;;;;;;12.33;100.00;99688.25;10532675;28;20036;-79
2023/03/24 08:02:59;;;;;;;0.57;0.08;;;;;;;13.02;100.00;99701.91;10547465;28;20048;-80
2023/03/24 08:08:13;;;;;;;0.00;0.00;;;;;;;12.38;100.00;99722.69;10543211;28;20484;-79
2023/03/24 08:13:14;;;;;;;0.00;0.00;;;;;;;12.13;100.00;99729.59;10532213;28;20097;-79
2023/03/24 08:18:16;;;;;;;0.00;0.00;;;;;;;12.60;100.00;99735.59;10544143;28;20503;-79
2023/03/24 08:23:18;;;;;;;0.43;0.30;;;;;;;12.26;100.00;99748.50;10524328;28;20449;-79
2023/03/24 08:28:20;;;;;;;0.22;0.22;;;;;;;12.52;100.00;99747.66;10513982;28;20040;-79
2023/03/24 08:33:21;;;;;;;0.52;0.47;;;;;;;12.53;100.00;99770.06;10510810;28;20049;-79
2023/03/24 08:38:29;;;;;;;0.70;0.25;;;;;;;12.72;100.00;99780.34;10524790;28;20041;-79
2023/03/24 08:43:33;;;;;;;0.10;0.10;;;;;;;12.66;100.00;99797.59;10530539;28;20044;-79
2023/03/24 08:48:36;;;;;;;0.10;0.10;;;;;;;13.22;100.00;99841.47;10569588;28;20036;-79
2023/03/24 08:53:38;;;;;;;1.65;0.40;;;;;;;13.56;100.00;99836.25;10541953;28;20075;-79
2023/03/24 08:58:40;;;;;;;0.63;0.32;;;;;;;12.91;100.00;99858.75;10544777;28;20040;-79
2023/03/24 09:03:43;;;;;;;0.10;0.10;;;;;;;13.22;100.00;99843.19;10544364;28;20490;-79
2023/03/24 09:08:45;;;;;;;1.40;0.43;;;;;;;13.09;100.00;99847.53;10561380;27;20040;-79
2023/03/24 09:13:48;;;;;;;0.10;0.10;;;;;;;12.95;100.00;99851.00;10533975;28;20102;-79
2023/03/24 09:18:50;;;;;;;0.38;0.28;;;;;;;12.77;100.00;99846.69;10526455;28;20491;-79
2023/03/24 09:23:51;;;;;;;0.20;0.05;;;;;;;12.88;100.00;99841.53;10525870;28;20056;-80
2023/03/24 09:28:53;;;;;;;0.00;0.00;;;;;;;12.50;100.00;99875.97;10525696;28;20411;-79
2023/03/24 09:33:55;;;;;;;2.28;0.52;;;;;;;13.67;100.00;99871.56;10543487;28;20130;-79
2023/03/24 09:38:56;;;;;;;0.00;0.00;;;;;;;13.45;100.00;99888.03;10546645;28;20559;-80
2023/03/24 09:44:21;;;;;;;1.02;0.40;;;;;;;13.57;100.00;99894.91;10531554;28;20280;-79
2023/03/24 09:49:28;;;;;;;1.52;0.40;;;;;;;13.09;100.00;99913.06;10513012;28;20052;-81
2023/03/24 09:54:41;;;;;;;1.13;0.55;;;;;;;12.91;100.00;99919.09;10536174;28;20509;-80
2023/03/24 09:59:42;;;;;;;1.67;1.55;;;;;;;13.09;100.00;99914.75;10536310;28;20390;-79
2023/03/24 10:04:47;;;;;;;0.73;0.55;;;;;;;12.95;100.00;99910.47;10555879;28;20548;-79
2023/03/24 10:09:58;;;;;;;0.00;0.00;;;;;;;13.07;100.00;99907.00;10534530;28;20465;-80
2023/03/24 10:15:31;;;;;;;1.40;0.30;;;;;;;12.91;100.00;99913.91;10524135;28;20056;-79
2023/03/24 10:20:53;;;;;;;0.35;0.20;;;;;;;12.94;100.00;99913.91;10532131;28;20122;-81
2023/03/24 10:25:56;;;;;;;0.20;0.17;;;;;;;14.09;100.00;99905.94;10510404;28;20054;-80
2023/03/24 10:31:01;;;;;;;0.00;0.00;;;;;;;14.66;100.00;99935.88;10541501;28;20093;-79
2023/03/24 10:36:09;;;;;;;0.20;0.20;;;;;;;14.07;100.00;99943.94;10538850;28;20047;-80
2023/03/24 10:41:32;;;;;;;0.57;0.57;;;;;;;13.50;100.00;99932.00;10548392;28;20048;-80
2023/03/24 10:46:36;;;;;;;0.32;0.17;;;;;;;13.62;100.00;99936.31;10568185;27;20038;-79
2023/03/24 10:51:45;;;;;;;2.08;0.20;;;;;;;13.69;100.00;99955.25;10521407;28;20044;-80
2023/03/24 10:56:59;;;;;;;0.00;0.00;;;;;;;14.76;100.00;99947.94;10549942;28;20047;-84
2023/03/24 11:02:17;;;;;;;0.55;0.47;;;;;;;14.16;100.00;99959.44;10548424;27;20039;-83
2023/03/24 11:07:34;;;;;;;0.22;0.13;;;;;;;14.78;100.00;99990.22;10543492;28;20107;-83
2023/03/24 11:12:39;;;;;;;0.70;0.20;;;;;;;14.95;100.00;100028.19;10549730;28;20466;-83
2023/03/24 11:17:42;;;;;;;0.00;0.00;;;;;;;15.53;100.00;100019.09;10531075;28;20035;-84
2023/03/24 11:23:05;;;;;;;0.22;0.10;;;;;;;15.54;100.00;100029.47;10525778;28;20059;-83
2023/03/24 11:28:24;;;;;;;0.82;0.20;;;;;;;13.64;100.00;100027.72;10518044;28;20072;-85
2023/03/24 11:33:32;;;;;;;0.08;0.08;;;;;;;12.58;100.00;100000.84;10527737;28;20116;-84
2023/03/24 11:38:36;;;;;;;0.20;0.20;;;;;;;11.58;100.00;99874.75;10532702;28;20047;-83
2023/03/24 11:43:41;;;;;;;0.00;0.00;;;;;;;11.88;100.00;99852.53;10556883;28;20040;-83
2023/03/24 11:48:51;;;;;;;0.00;0.00;;;;;;;12.57;100.00;99817.41;10553098;28;20036;-85
2023/03/24 11:53:55;;;;;;;0.45;0.25;;;;;;;12.72;100.00;99816.53;10516058;28;20484;-83
2023/03/24 11:59:13;;;;;;;0.52;0.15;;;;;;;12.96;100.00;99834.63;10537730;28;20048;-80
2023/03/24 12:04:26;;;;;;;0.10;0.10;;;;;;;12.95;100.00;99866.50;10543932;28;20105;-79
2023/03/24 12:09:56;;;;;;;0.25;0.13;;;;;;;13.01;100.00;99870.81;10539550;28;20044;-79
2023/03/24 12:15:20;;;;;;;1.10;0.90;;;;;;;12.40;100.00;99835.50;10525574;28;20052;-80
2023/03/24 12:20:49;;;;;;;0.05;0.05;;;;;;;12.62;100.00;99832.03;10539772;28;20478;-80
2023/03/24 12:26:26;;;;;;;0.20;0.13;;;;;;;12.21;100.00;99851.78;10554101;28;20048;-80
2023/03/24 12:31:55;;;;;;;0.20;0.15;;;;;;;11.69;100.00;99862.78;10507096;28;20043;-79
2023/03/24 12:37:21;;;;;;;0.05;0.05;;;;;;;11.06;100.00;99824.59;10545428;28;20491;-78
2023/03/24 12:42:28;;;;;;;0.00;0.00;;;;;;;10.10;100.00;99822.91;10528922;28;20044;-79
2023/03/24 12:47:47;;;;;;;0.00;0.00;;;;;;;10.18;100.00;99774.06;10543186;28;20047;-79
2023/03/24 12:53:28;;;;;;;0.10;0.10;;;;;;;10.27;100.00;99741.59;10564127;28;20035;-78
2023/03/24 12:58:49;;;;;;;0.00;0.00;;;;;;;10.33;100.00;99709.84;10552716;28;20417;-79
2023/03/24 13:03:59;;;;;;;1.65;0.30;;;;;;;10.73;100.00;99666.38;10516020;28;20040;-78
2023/03/24 13:09:09;;;;;;;0.70;0.70;;;;;;;10.96;100.00;99629.56;10560124;28;20089;-79
2023/03/24 13:14:18;;;;;;;0.05;0.05;;;;;;;10.99;100.00;99610.66;10544070;28;20056;-79
2023/03/24 13:19:23;;;;;;;0.00;0.00;;;;;;;11.27;100.00;99596.13;10549880;28;20403;-79
2023/03/24 13:24:26;;;;;;;0.20;0.10;;;;;;;10.99;100.00;99618.38;10536109;28;20048;-79
2023/03/24 13:29:57;;;;;;;0.00;0.00;;;;;;;12.41;100.00;99589.22;10528559;28;20040;-80
2023/03/24 13:35:17;;;;;;;0.03;0.03;;;;;;;11.91;100.00;99630.59;10544695;28;20414;-79
2023/03/24 13:40:25;;;;;;;0.32;0.32;;;;;;;12.62;100.00;99640.84;10541231;28;20306;-80
2023/03/24 13:45:39;;;;;;;0.17;0.08;;;;;;;12.79;100.00;99645.09;10549946;28;20440;-79
2023/03/24 13:51:20;;;;;;;0.28;0.20;;;;;;;12.75;100.00;99677.00;10521079;28;20533;-80
2023/03/24 13:56:26;;;;;;;0.10;0.10;;;;;;;12.70;100.00;99689.94;10558935;27;20051;-79
2023/03/24 14:01:46;;;;;;;0.25;0.25;;;;;;;12.85;100.00;99663.16;10531807;28;20043;-80
2023/03/24 14:06:50;;;;;;;0.90;0.47;;;;;;;12.40;100.00;99706.34;10538490;28;20047;-80
2023/03/24 14:12:02;;;;;;;0.00;0.00;;;;;;;11.97;100.00;99731.28;10561594;28;20390;-81
2023/03/24 14:17:16;;;;;;;0.00;0.00;;;;;;;12.00;100.00;99775.19;10554155;28;20059;-78
2023/03/24 14:22:25;;;;;;;0.03;0.03;;;;;;;11.71;100.00;99800.84;10547243;28;20649;-79
2023/03/24 14:27:36;;;;;;;0.47;0.20;;;;;;;11.45;100.00;99803.31;10510141;28;20044;-79
2023/03/24 14:32:43;;;;;;;0.00;0.00;;;;;;;10.65;100.00;99799.41;10572961;27;20035;-80
2023/03/24 14:37:52;;;;;;;0.00;0.00;;;;;;;9.16;100.00;99784.06;10543660;28;20071;-77
2023/03/24 14:43:01;;;;;;;0.00;0.00;;;;;;;9.39;100.00;99727.81;10503512;28;20057;-78
2023/03/24 14:48:16;;;;;;;0.00;0.00;;;;;;;9.59;100.00;99686.03;10525794;28;20552;-77
2023/03/24 14:53:19;;;;;;;0.00;0.00;;;;;;;9.83;100.00;99678.56;10546978;28;20105;-77
2023/03/24 14:58:29;;;;;;;0.05;0.05;;;;;;;9.80;100.00;99660.53;10531591;28;20394;-77
2023/03/24 15:03:48;;;;;;;0.00;0.00;;;;;;;9.65;100.00;99650.97;10559366;28;20051;-77
2023/03/24 15:08:54;;;;;;;0.00;0.00;;;;;;;9.65;100.00;99629.53;10553833;28;20044;-78
2023/03/24 15:13:56;;;;;;;0.00;0.00;;;;;;;9.82;100.00;99611.69;10542991;28;20032;-77
2023/03/24 15:19:18;;;;;;;0.00;0.00;;;;;;;9.99;100.00;99588.66;10536251;28;20507;-77
2023/03/24 15:24:19;;;;;;;0.00;0.00;;;;;;;10.28;100.00;99582.81;10540490;28;20052;-78
2023/03/24 15:29:22;;;;;;;0.17;0.17;;;;;;;10.61;100.00;99563.31;10563417;28;20130;-77
2023/03/24 15:34:28;;;;;;;0.93;0.17;;;;;;;11.13;100.00;99562.59;10537758;28;20445;-78
2023/03/24 15:39:35;;;;;;;0.10;0.10;;;;;;;11.44;100.00;99578.09;10527093;28;20062;-79
2023/03/24 15:44:39;;;;;;;0.08;0.08;;;;;;;11.13;100.00;99597.81;10532368;28;20493;-79
2023/03/24 15:49:58;;;;;;;0.00;0.00;;;;;;;11.17;100.00;99604.69;10521962;28;20036;-79
2023/03/24 15:55:20;;;;;;;0.22;0.20;;;;;;;11.55;100.00;99607.34;10538209;28;20043;-78
2023/03/24 16:00:29;;;;;;;0.00;0.00;;;;;;;10.83;100.00;99635.53;10538519;28;20036;-79
2023/03/24 16:05:32;;;;;;;0.05;0.05;;;;;;;11.23;100.00;99621.06;10516513;28;20050;-78
2023/03/24 16:10:41;;;;;;;0.10;0.10;;;;;;;11.00;100.00;99627.84;10566172;28;20040;-79
2023/03/24 16:16:09;;;;;;;0.00;0.00;;;;;;;11.05;100.00;99631.28;10564166;28;20032;-79
2023/03/24 16:21:15;;;;;;;0.00;0.00;;;;;;;11.05;100.00;99637.31;10502316;28;20056;-79
2023/03/24 16:26:22;;;;;;;0.10;0.10;;;;;;;10.89;100.00;99651.00;10539637;28;20414;-78
2023/03/24 16:31:29;;;;;;;0.98;0.40;;;;;;;10.88;100.00;99650.13;10545344;28;20044;-79
2023/03/24 16:36:31;;;;;;;0.00;0.00;;;;;;;10.94;100.00;99660.47;10545286;28;20050;-79
2023/03/24 16:41:32;;;;;;;0.00;0.00;;;;;;;10.92;100.00;99653.56;10535552;28;20093;-79
2023/03/24 16:46:35;;;;;;;0.00;0.00;;;;;;;11.05;100.00;99660.53;10530437;28;20498;-79
2023/03/24 16:51:37;;;;;;;0.00;0.00;;;;;;;10.76;100.00;99658.66;10559143;28;20402;-79
2023/03/24 16:56:39;;;;;;;0.10;0.10;;;;;;;10.74;100.00;99652.66;10527486;28;20036;-78
2023/03/24 17:01:44;;;;;;;0.00;0.00;;;;;;;10.50;100.00;99657.66;10544449;28;20050;-79
2023/03/24 17:06:51;;;;;;;0.70;0.30;;;;;;;10.59;100.00;99616.50;10543661;28;20452;-79
2023/03/24 17:11:56;;;;;;;0.00;0.00;;;;;;;10.61;100.00;99622.53;10538482;28;20059;-79
2023/03/24 17:16:58;;;;;;;0.10;0.10;;;;;;;10.56;100.00;99595.88;10520339;28;20541;-79
2023/03/24 17:22:02;;;;;;;0.10;0.10;;;;;;;10.45;100.00;99601.84;10525003;28;20525;-79
2023/03/24 17:27:32;;;;;;;0.32;0.20;;;;;;;10.08;100.00;99588.72;10515797;28;20044;-79
2023/03/24 17:32:36;;;;;;;0.67;0.43;;;;;;;10.08;100.00;99581.00;10513781;28;20513;-78
2023/03/24 17:37:38;;;;;;;0.45;0.13;;;;;;;9.93;100.00;99571.44;10521579;28;20054;-77
2023/03/24 17:42:41;;;;;;;0.20;0.20;;;;;;;9.60;100.00;99572.06;10529168;28;20040;-76
2023/03/24 17:47:46;;;;;;;0.00;0.00;;;;;;;9.37;100.00;99575.28;10526340;28;20044;-77
2023/03/24 17:52:48;;;;;;;0.20;0.20;;;;;;;9.41;100.00;99559.06;10526931;28;20036;-77
2023/03/24 17:57:50;;;;;;;0.00;0.00;;;;;;;9.55;100.00;99548.03;10526627;28;20067;-76
2023/03/24 18:02:52;;;;;;;0.10;0.10;;;;;;;9.72;100.00;99528.41;10523948;28;20111;-77
2023/03/24 18:07:53;;;;;;;0.20;0.20;;;;;;;9.95;100.00;99520.88;10522852;28;20060;-79
2023/03/24 18:12:55;;;;;;;3.65;0.25;;;;;;;9.81;100.00;99507.06;10533320;28;20039;-79
2023/03/24 18:17:57;;;;;;;0.10;0.10;;;;;;;10.06;100.00;99502.94;10529541;28;20051;-79
2023/03/24 18:22:59;;;;;;;0.00;0.00;;;;;;;10.22;100.00;99503.00;10528927;28;20098;-79
2023/03/24 18:28:01;;;;;;;1.05;1.02;;;;;;;10.42;100.00;99505.72;10535629;28;20548;-80
2023/03/24 18:33:03;;;;;;;0.35;0.15;;;;;;;10.71;100.00;99528.97;10525198;28;20044;-79
2023/03/24 18:38:05;;;;;;;0.10;0.10;;;;;;;10.60;100.00;99539.25;10519340;28;20048;-79
2023/03/24 18:43:07;;;;;;;0.00;0.00;;;;;;;10.68;100.00;99570.19;10516125;28;20048;-79
2023/03/24 18:48:10;;;;;;;0.00;0.00;;;;;;;10.75;100.00;99602.84;10554559;28;20454;-80
2023/03/24 18:53:16;;;;;;;0.25;0.25;;;;;;;10.80;100.00;99628.59;10523131;28;20475;-79
2023/03/24 18:58:18;;;;;;;0.10;0.10;;;;;;;10.75;100.00;99633.78;10556808;28;20377;-80
2023/03/24 19:03:22;;;;;;;0.00;0.00;;;;;;;10.59;100.00;99637.09;10554714;28;20123;-79
2023/03/24 19:08:24;;;;;;;0.00;0.00;;;;;;;10.42;100.00;99643.00;10531104;28;20123;-79
2023/03/24 19:13:25;;;;;;;0.32;0.20;;;;;;;10.23;100.00;99643.72;10528486;28;20388;-79
2023/03/24 19:18:27;;;;;;;0.10;0.10;;;;;;;9.98;100.00;99600.63;10537417;28;20090;-79
2023/03/24 19:23:29;;;;;;;0.52;0.52;;;;;;;10.00;100.00;99560.34;10532131;28;20052;-79
2023/03/24 19:28:34;;;;;;;0.38;0.38;;;;;;;10.01;100.00;99535.50;10529330;28;20405;-79
2023/03/24 19:33:38;;;;;;;0.30;0.10;;;;;;;9.96;100.00;99532.00;10551192;28;20040;-79
2023/03/24 19:38:41;;;;;;;0.17;0.15;;;;;;;10.02;100.00;99526.91;10527145;28;20090;-79
2023/03/24 19:43:43;;;;;;;0.17;0.17;;;;;;;10.13;100.00;99544.97;10526884;28;20433;-79
2023/03/24 19:48:45;;;;;;;0.03;0.03;;;;;;;10.08;100.00;99591.31;10527893;28;20380;-78
2023/03/24 19:53:46;;;;;;;0.00;0.00;;;;;;;9.82;100.00;99609.97;10551351;28;20070;-78
2023/03/24 19:58:48;;;;;;;0.00;0.00;;;;;;;9.79;100.00;99604.78;10525994;28;20105;-79
2023/03/24 20:03:50;;;;;;;0.30;0.20;;;;;;;9.65;100.00;99578.97;10525985;28;20078;-80
2023/03/24 20:08:52;;;;;;;0.68;0.20;;;;;;;9.68;100.00;99557.56;10537604;28;20064;-80
2023/03/24 20:13:53;;;;;;;0.00;0.00;;;;;;;9.77;100.00;99531.03;10540659;28;20085;-80
2023/03/24 20:18:55;;;;;;;1.38;0.30;;;;;;;9.72;100.00;99518.13;10539109;28;20047;-80
2023/03/24 20:23:56;;;;;;;1.55;1.23;;;;;;;9.76;100.00;99517.31;10519404;28;20513;-79
2023/03/24 20:28:58;;;;;;;0.03;0.03;;;;;;;9.45;100.00;99523.94;10517777;28;20483;-80
2023/03/24 20:34:02;;;;;;;0.25;0.10;;;;;;;9.54;100.00;99518.84;10542685;28;20079;-80
2023/03/24 20:39:04;;;;;;;0.10;0.10;;;;;;;9.59;100.00;99521.47;10534197;28;20052;-80
2023/03/24 20:44:06;;;;;;;0.00;0.00;;;;;;;9.78;100.00;99520.78;10520114;28;20510;-80
2023/03/24 20:49:12;;;;;;;0.25;0.25;;;;;;;9.69;100.00;99546.41;10536825;28;20055;-80
2023/03/24 20:54:14;;;;;;;0.10;0.10;;;;;;;9.54;100.00;99560.00;10524777;28;20134;-80
2023/03/24 20:59:17;;;;;;;0.05;0.05;;;;;;;9.48;100.00;99560.81;10539848;28;20055;-80
2023/03/24 21:04:18;;;;;;;0.68;0.20;;;;;;;9.42;100.00;99558.19;10551904;28;20089;-79
2023/03/24 21:09:21;;;;;;;0.00;0.00;;;;;;;9.32;100.00;99569.25;10543453;28;20047;-80
2023/03/24 21:14:22;;;;;;;0.10;0.10;;;;;;;9.40;100.00;99567.59;10561440;28;20044;-79
2023/03/24 21:19:24;;;;;;;0.10;0.10;;;;;;;9.38;100.00;99563.31;10538420;28;20044;-79
2023/03/24 21:24:25;;;;;;;0.43;0.15;;;;;;;9.40;100.00;99577.88;10527699;28;20685;-79
2023/03/24 21:29:27;;;;;;;0.10;0.10;;;;;;;9.53;100.00;99579.72;10529016;28;20101;-79
2023/03/24 21:34:29;;;;;;;0.00;0.00;;;;;;;9.49;100.00;99593.38;10527182;28;20043;-80
2023/03/24 21:39:30;;;;;;;0.00;0.00;;;;;;;9.39;100.00;99586.44;10520743;28;20522;-80
2023/03/24 21:44:33;;;;;;;0.00;0.00;;;;;;;9.30;100.00;99602.66;10526597;28;20044;-79
2023/03/24 21:49:34;;;;;;;0.08;0.08;;;;;;;9.39;100.00;99596.72;10523337;28;20036;-80
2023/03/24 21:54:40;;;;;;;0.10;0.03;;;;;;;9.26;100.00;99605.16;10528740;28;20040;-81
2023/03/24 21:59:44;;;;;;;0.10;0.10;;;;;;;9.25;100.00;99609.44;10534608;28;20075;-81
2023/03/24 22:04:46;;;;;;;0.10;0.10;;;;;;;9.39;100.00;99613.84;10558045;28;20047;-81
2023/03/24 22:09:49;;;;;;;0.00;0.00;;;;;;;9.25;100.00;99613.72;10513419;28;20400;-81
2023/03/24 22:14:51;;;;;;;0.60;0.20;;;;;;;9.26;100.00;99620.59;10522153;28;20063;-81
2023/03/24 22:19:52;;;;;;;0.10;0.10;;;;;;;9.28;100.00;99626.59;10521799;28;20056;-82
2023/03/24 22:24:54;;;;;;;0.00;0.00;;;;;;;9.19;100.00;99630.81;10531326;28;20491;-80
2023/03/24 22:29:56;;;;;;;0.43;0.10;;;;;;;9.28;100.00;99624.91;10515224;28;20036;-80
2023/03/24 22:34:57;;;;;;;0.00;0.00;;;;;;;9.31;100.00;99624.06;10554285;27;20056;-80
2023/03/24 22:39:59;;;;;;;0.00;0.00;;;;;;;9.27;100.00;99632.59;10553808;28;20048;-79
2023/03/24 22:45:00;;;;;;;0.08;0.08;;;;;;;9.32;100.00;99646.34;10536545;28;20505;-79
2023/03/24 22:50:02;;;;;;;0.00;0.00;;;;;;;9.29;100.00;99646.31;10525576;28;20040;-80
2023/03/24 22:55:04;;;;;;;0.08;0.08;;;;;;;9.30;100.00;99632.63;10503074;28;20093;-79
2023/03/24 23:00:07;;;;;;;0.15;0.10;;;;;;;9.31;100.00;99634.34;10508499;28;20072;-79
2023/03/24 23:05:11;;;;;;;0.10;0.10;;;;;;;9.26;100.00;99651.44;10517484;28;20048;-79
2023/03/24 23:10:13;;;;;;;0.10;0.10;;;;;;;9.17;100.00;99647.03;10531778;28;20119;-80
2023/03/24 23:15:16;;;;;;;0.00;0.00;;;;;;;9.29;100.00;99656.59;10523198;28;20112;-80
2023/03/24 23:20:18;;;;;;;0.05;0.05;;;;;;;9.30;100.00;99660.88;10543694;28;20459;-79
2023/03/24 23:25:20;;;;;;;0.13;0.08;;;;;;;9.26;100.00;99652.28;10539825;28;20093;-80
2023/03/24 23:30:22;;;;;;;0.10;0.10;;;;;;;9.25;100.00;99650.53;10522663;28;20085;-80
2023/03/24 23:35:24;;;;;;;0.10;0.10;;;;;;;9.17;100.00;99652.16;10528138;28;20036;-80
2023/03/24 23:40:27;;;;;;;0.22;0.20;;;;;;;9.28;100.00;99650.59;10514023;28;20036;-80